sensor_id;sensor_type;location;lat;lon;timestamp;pressure;altitude;pressure_sealevel;temperature;humidity
46928;BME280;32668;51.306;-0.576;2022-08-03T00:01:02;100686.16;;;17.86;100.00
46928;BME280;32668;51.306;-0.576;2022-08-03T00:03:27;100680.88;;;17.86;100.00
46928;BME280;32668;51.306;-0.576;2022-08-03T00:05:53;100683.50;;;17.89;100.00
46928;BME280;32668;51.306;-0.576;2022-08-03T00:08:18;100687.03;;;17.84;100.00
46928;BME280;32668;51.306;-0.576;2022-08-03T00:10:44;100680.00;;;17.93;100.00
46928;BME280;32668;51.306;-0.576;2022-08-03T00:13:09;100684.41;;;17.82;100.00
46928;BME280;32668;51.306;-0.576;2022-08-03T00:15:40;100670.34;;;17.85;100.00
46928;BME280;32668;51.306;-0.576;2022-08-03T00:18:07;100670.34;;;17.85;100.00
46928;BME280;32668;51.306;-0.576;2022-08-03T00:20:33;100674.72;;;17.87;100.00
46928;BME280;32668;51.306;-0.576;2022-08-03T00:22:58;100669.50;;;17.82;100.00
46928;BME280;32668;51.306;-0.576;2022-08-03T00:25:24;100666.81;;;17.86;100.00
46928;BME280;32668;51.306;-0.576;2022-08-03T00:27:49;100667.72;;;17.83;100.00
46928;BME280;32668;51.306;-0.576;2022-08-03T00:30:15;100665.13;;;17.78;100.00
46928;BME280;32668;51.306;-0.576;2022-08-03T00:32:40;100668.63;;;17.80;100.00
46928;BME280;32668;51.306;-0.576;2022-08-03T00:35:06;100667.75;;;17.75;100.00
46928;BME280;32668;51.306;-0.576;2022-08-03T00:37:31;100667.75;;;17.78;100.00
46928;BME280;32668;51.306;-0.576;2022-08-03T00:39:57;100670.38;;;17.77;100.00
46928;BME280;32668;51.306;-0.576;2022-08-03T00:42:22;100665.13;;;17.69;100.00
46928;BME280;32668;51.306;-0.576;2022-08-03T00:44:47;100666.91;;;17.67;100.00
46928;BME280;32668;51.306;-0.576;2022-08-03T00:47:13;100672.16;;;17.67;100.00
46928;BME280;32668;51.306;-0.576;2022-08-03T00:49:39;100674.81;;;17.65;100.00
46928;BME280;32668;51.306;-0.576;2022-08-03T00:52:09;100674.81;;;17.62;100.00
46928;BME280;32668;51.306;-0.576;2022-08-03T00:54:36;100670.41;;;17.60;100.00
46928;BME280;32668;51.306;-0.576;2022-08-03T00:57:02;100665.19;;;17.52;100.00
46928;BME280;32668;51.306;-0.576;2022-08-03T00:59:28;100667.84;;;17.44;100.00
46928;BME280;32668;51.306;-0.576;2022-08-03T01:01:55;100669.56;;;17.44;100.00
46928;BME280;32668;51.306;-0.576;2022-08-03T01:04:20;100666.97;;;17.33;100.00
46928;BME280;32668;51.306;-0.576;2022-08-03T01:09:37;100670.50;;;17.21;100.00
46928;BME280;32668;51.306;-0.576;2022-08-03T01:12:13;100662.59;;;17.24;100.00
46928;BME280;32668;51.306;-0.576;2022-08-03T01:19:59;100661.75;;;17.24;100.00
46928;BME280;32668;51.306;-0.576;2022-08-03T01:22:59;100659.09;;;17.28;100.00
46928;BME280;32668;51.306;-0.576;2022-08-03T01:31:05;100665.22;;;17.29;100.00
46928;BME280;32668;51.306;-0.576;2022-08-03T01:33:41;100664.34;;;17.34;100.00
46928;BME280;32668;51.306;-0.576;2022-08-03T01:36:21;100666.09;;;17.39;100.00
46928;BME280;32668;51.306;-0.576;2022-08-03T01:38:54;100670.47;;;17.44;100.00
46928;BME280;32668;51.306;-0.576;2022-08-03T01:41:24;100673.97;;;17.49;100.00
46928;BME280;32668;51.306;-0.576;2022-08-03T01:43:50;100677.47;;;17.50;100.00
46928;BME280;32668;51.306;-0.576;2022-08-03T01:46:18;100677.47;;;17.53;100.00
46928;BME280;32668;51.306;-0.576;2022-08-03T01:48:47;100679.22;;;17.56;100.00
46928;BME280;32668;51.306;-0.576;2022-08-03T01:51:15;100680.09;;;17.56;100.00
46928;BME280;32668;51.306;-0.576;2022-08-03T01:53:43;100685.31;;;17.61;100.00
46928;BME280;32668;51.306;-0.576;2022-08-03T01:56:10;100676.56;;;17.63;100.00
46928;BME280;32668;51.306;-0.576;2022-08-03T01:58:38;100676.56;;;17.62;100.00
46928;BME280;32668;51.306;-0.576;2022-08-03T02:01:05;100669.56;;;17.65;100.00
46928;BME280;32668;51.306;-0.576;2022-08-03T02:03:36;100680.06;;;17.67;100.00
46928;BME280;32668;51.306;-0.576;2022-08-03T02:06:03;100678.28;;;17.69;100.00
46928;BME280;32668;51.306;-0.576;2022-08-03T02:08:30;100665.13;;;17.69;100.00
46928;BME280;32668;51.306;-0.576;2022-08-03T02:10:58;100667.78;;;17.72;100.00
46928;BME280;32668;51.306;-0.576;2022-08-03T02:13:25;100669.53;;;17.69;100.00
46928;BME280;32668;51.306;-0.576;2022-08-03T02:15:51;100666.00;;;17.71;100.00
46928;BME280;32668;51.306;-0.576;2022-08-03T02:18:19;100663.38;;;17.71;100.00
46928;BME280;32668;51.306;-0.576;2022-08-03T02:20:45;100665.13;;;17.74;100.00
46928;BME280;32668;51.306;-0.576;2022-08-03T02:23:14;100664.25;;;17.75;100.00
46928;BME280;32668;51.306;-0.576;2022-08-03T02:25:51;100659.88;;;17.75;100.00
46928;BME280;32668;51.306;-0.576;2022-08-03T02:28:19;100657.22;;;17.75;100.00
46928;BME280;32668;51.306;-0.576;2022-08-03T02:30:51;100656.34;;;17.78;100.00
46928;BME280;32668;51.306;-0.576;2022-08-03T02:33:21;100658.97;;;17.78;100.00
46928;BME280;32668;51.306;-0.576;2022-08-03T02:35:50;100651.97;;;17.75;100.00
46928;BME280;32668;51.306;-0.576;2022-08-03T02:38:20;100643.16;;;17.78;100.00
46928;BME280;32668;51.306;-0.576;2022-08-03T02:40:49;100640.56;;;17.73;100.00
46928;BME280;32668;51.306;-0.576;2022-08-03T02:43:19;100639.66;;;17.79;100.00
46928;BME280;32668;51.306;-0.576;2022-08-03T02:45:47;100633.53;;;17.81;100.00
46928;BME280;32668;51.306;-0.576;2022-08-03T02:48:22;100641.41;;;17.81;100.00
46928;BME280;32668;51.306;-0.576;2022-08-03T02:50:52;100637.03;;;17.76;100.00
46928;BME280;32668;51.306;-0.576;2022-08-03T02:53:19;100634.41;;;17.77;100.00
46928;BME280;32668;51.306;-0.576;2022-08-03T02:55:46;100625.66;;;17.75;100.00
46928;BME280;32668;51.306;-0.576;2022-08-03T02:58:12;100620.38;;;17.78;100.00
46928;BME280;32668;51.306;-0.576;2022-08-03T03:00:39;100624.75;;;17.79;100.00
46928;BME280;32668;51.306;-0.576;2022-08-03T03:03:08;100625.63;;;17.81;100.00
46928;BME280;32668;51.306;-0.576;2022-08-03T03:05:35;100623.00;;;17.77;100.00
46928;BME280;32668;51.306;-0.576;2022-08-03T03:08:01;100624.78;;;17.76;100.00
46928;BME280;32668;51.306;-0.576;2022-08-03T03:10:27;100621.25;;;17.76;100.00
46928;BME280;32668;51.306;-0.576;2022-08-03T03:12:57;100616.84;;;17.82;100.00
46928;BME280;32668;51.306;-0.576;2022-08-03T03:15:24;100609.81;;;17.83;100.00
46928;BME280;32668;51.306;-0.576;2022-08-03T03:17:51;100609.81;;;17.80;100.00
46928;BME280;32668;51.306;-0.576;2022-08-03T03:20:19;100608.13;;;17.65;100.00
46928;BME280;32668;51.306;-0.576;2022-08-03T03:22:46;100610.72;;;17.73;100.00
46928;BME280;32668;51.306;-0.576;2022-08-03T03:25:13;100601.97;;;17.69;100.00
46928;BME280;32668;51.306;-0.576;2022-08-03T03:27:39;100603.75;;;17.67;100.00
46928;BME280;32668;51.306;-0.576;2022-08-03T03:30:05;100595.84;;;17.69;100.00
46928;BME280;32668;51.306;-0.576;2022-08-03T03:32:31;100594.97;;;17.68;100.00
46928;BME280;32668;51.306;-0.576;2022-08-03T03:34:57;100607.25;;;17.60;100.00
46928;BME280;32668;51.306;-0.576;2022-08-03T03:37:24;100608.16;;;17.59;100.00
46928;BME280;32668;51.306;-0.576;2022-08-03T03:39:52;100614.28;;;17.64;100.00
46928;BME280;32668;51.306;-0.576;2022-08-03T03:42:17;100608.13;;;17.68;100.00
46928;BME280;32668;51.306;-0.576;2022-08-03T03:44:43;100621.28;;;17.65;100.00
46928;BME280;32668;51.306;-0.576;2022-08-03T03:47:08;100630.94;;;17.66;100.00
46928;BME280;32668;51.306;-0.576;2022-08-03T03:49:35;100623.03;;;17.66;100.00
46928;BME280;32668;51.306;-0.576;2022-08-03T03:52:00;100628.31;;;17.67;100.00
46928;BME280;32668;51.306;-0.576;2022-08-03T03:54:25;100623.94;;;17.62;100.00
46928;BME280;32668;51.306;-0.576;2022-08-03T03:56:51;100629.19;;;17.62;100.00
46928;BME280;32668;51.306;-0.576;2022-08-03T03:59:16;100627.44;;;17.62;100.00
46928;BME280;32668;51.306;-0.576;2022-08-03T04:01:42;100629.19;;;17.66;100.00
46928;BME280;32668;51.306;-0.576;2022-08-03T04:04:07;100631.81;;;17.70;100.00
46928;BME280;32668;51.306;-0.576;2022-08-03T04:06:51;100638.81;;;17.69;100.00
46928;BME280;32668;51.306;-0.576;2022-08-03T04:09:37;100644.09;;;17.66;100.00
46928;BME280;32668;51.306;-0.576;2022-08-03T04:12:25;100635.31;;;17.67;100.00
46928;BME280;32668;51.306;-0.576;2022-08-03T04:14:55;100638.84;;;17.64;100.00
46928;BME280;32668;51.306;-0.576;2022-08-03T04:17:24;100641.47;;;17.64;100.00
46928;BME280;32668;51.306;-0.576;2022-08-03T04:19:53;100640.59;;;17.62;100.00
46928;BME280;32668;51.306;-0.576;2022-08-03T04:22:26;100643.22;;;17.65;100.00
46928;BME280;32668;51.306;-0.576;2022-08-03T04:25:00;100640.59;;;17.67;100.00
46928;BME280;32668;51.306;-0.576;2022-08-03T04:27:32;100640.59;;;17.64;100.00
46928;BME280;32668;51.306;-0.576;2022-08-03T04:30:02;100645.84;;;17.67;100.00
46928;BME280;32668;51.306;-0.576;2022-08-03T04:32:28;100651.97;;;17.69;100.00
46928;BME280;32668;51.306;-0.576;2022-08-03T04:34:55;100651.09;;;17.67;100.00
46928;BME280;32668;51.306;-0.576;2022-08-03T04:37:32;100657.25;;;17.72;100.00
46928;BME280;32668;51.306;-0.576;2022-08-03T04:40:02;100657.22;;;17.77;100.00
46928;BME280;32668;51.306;-0.576;2022-08-03T04:42:30;100657.22;;;17.75;100.00
46928;BME280;32668;51.306;-0.576;2022-08-03T04:44:57;100658.97;;;17.76;100.00
46928;BME280;32668;51.306;-0.576;2022-08-03T04:47:23;100650.19;;;17.79;100.00
46928;BME280;32668;51.306;-0.576;2022-08-03T04:49:49;100648.47;;;17.76;100.00
46928;BME280;32668;51.306;-0.576;2022-08-03T04:52:15;100655.47;;;17.77;100.00
46928;BME280;32668;51.306;-0.576;2022-08-03T04:54:42;100656.34;;;17.76;100.00
46928;BME280;32668;51.306;-0.576;2022-08-03T04:57:09;100658.97;;;17.81;100.00
46928;BME280;32668;51.306;-0.576;2022-08-03T04:59:34;100663.38;;;17.77;100.00
46928;BME280;32668;51.306;-0.576;2022-08-03T05:02:00;100658.97;;;17.78;100.00
46928;BME280;32668;51.306;-0.576;2022-08-03T05:04:26;100658.09;;;17.76;100.00
46928;BME280;32668;51.306;-0.576;2022-08-03T05:06:51;100653.69;;;17.78;100.00
46928;BME280;32668;51.306;-0.576;2022-08-03T05:09:16;100654.59;;;17.81;100.00
46928;BME280;32668;51.306;-0.576;2022-08-03T05:11:42;100658.03;;;17.87;100.00
46928;BME280;32668;51.306;-0.576;2022-08-03T05:14:07;100651.88;;;17.91;100.00
46928;BME280;32668;51.306;-0.576;2022-08-03T05:16:33;100663.31;;;17.91;100.00
46928;BME280;32668;51.306;-0.576;2022-08-03T05:18:58;100655.41;;;17.90;100.00
46928;BME280;32668;51.306;-0.576;2022-08-03T05:21:23;100653.69;;;17.84;100.00
46928;BME280;32668;51.306;-0.576;2022-08-03T05:23:49;100651.94;;;17.86;100.00
46928;BME280;32668;51.306;-0.576;2022-08-03T05:26:14;100649.28;;;17.89;100.00
46928;BME280;32668;51.306;-0.576;2022-08-03T05:28:40;100657.16;;;17.91;100.00
46928;BME280;32668;51.306;-0.576;2022-08-03T05:31:06;100657.19;;;17.89;100.00
46928;BME280;32668;51.306;-0.576;2022-08-03T05:33:31;100652.75;;;17.93;100.00
46928;BME280;32668;51.306;-0.576;2022-08-03T05:35:57;100657.16;;;17.99;100.00
46928;BME280;32668;51.306;-0.576;2022-08-03T05:38:24;100658.03;;;18.02;100.00
46928;BME280;32668;51.306;-0.576;2022-08-03T05:40:49;100654.50;;;18.02;100.00
46928;BME280;32668;51.306;-0.576;2022-08-03T05:43:14;100663.31;;;17.99;100.00
46928;BME280;32668;51.306;-0.576;2022-08-03T05:45:41;100650.13;;;17.96;100.00
46928;BME280;32668;51.306;-0.576;2022-08-03T05:48:06;100656.28;;;18.00;100.00
46928;BME280;32668;51.306;-0.576;2022-08-03T05:50:32;100655.38;;;18.01;100.00
46928;BME280;32668;51.306;-0.576;2022-08-03T05:52:57;100648.38;;;18.04;100.00
46928;BME280;32668;51.306;-0.576;2022-08-03T05:55:23;100651.91;;;18.00;100.00
46928;BME280;32668;51.306;-0.576;2022-08-03T05:57:48;100658.00;;;18.07;100.00
46928;BME280;32668;51.306;-0.576;2022-08-03T06:00:14;100660.63;;;18.13;100.00
46928;BME280;32668;51.306;-0.576;2022-08-03T06:02:40;100657.97;;;18.19;100.00
46928;BME280;32668;51.306;-0.576;2022-08-03T06:05:07;100664.06;;;18.23;100.00
46928;BME280;32668;51.306;-0.576;2022-08-03T06:07:33;100655.28;;;18.21;100.00
46928;BME280;32668;51.306;-0.576;2022-08-03T06:09:58;100657.94;;;18.25;100.00
46928;BME280;32668;51.306;-0.576;2022-08-03T06:12:26;100661.44;;;18.24;100.00
46928;BME280;32668;51.306;-0.576;2022-08-03T06:14:51;100661.41;;;18.29;100.00
46928;BME280;32668;51.306;-0.576;2022-08-03T06:17:17;100662.22;;;18.39;100.00
46928;BME280;32668;51.306;-0.576;2022-08-03T06:19:42;100664.00;;;18.38;100.00
46928;BME280;32668;51.306;-0.576;2022-08-03T06:22:07;100669.22;;;18.45;100.00
46928;BME280;32668;51.306;-0.576;2022-08-03T06:24:33;100661.34;;;18.37;100.00
46928;BME280;32668;51.306;-0.576;2022-08-03T06:26:58;100661.38;;;18.38;100.00
46928;BME280;32668;51.306;-0.576;2022-08-03T06:29:24;100668.38;;;18.41;100.00
46928;BME280;32668;51.306;-0.576;2022-08-03T06:31:49;100673.59;;;18.42;100.00
46928;BME280;32668;51.306;-0.576;2022-08-03T06:34:15;100680.72;;;18.34;100.00
46928;BME280;32668;51.306;-0.576;2022-08-03T06:36:40;100675.38;;;18.42;100.00
46928;BME280;32668;51.306;-0.576;2022-08-03T06:39:06;100670.06;;;18.47;100.00
46928;BME280;32668;51.306;-0.576;2022-08-03T06:41:32;100672.72;;;18.48;100.00
46928;BME280;32668;51.306;-0.576;2022-08-03T06:43:57;100674.47;;;18.46;100.00
46928;BME280;32668;51.306;-0.576;2022-08-03T06:46:23;100671.78;;;18.54;100.00
46928;BME280;32668;51.306;-0.576;2022-08-03T06:48:49;100676.22;;;18.53;100.00
46928;BME280;32668;51.306;-0.576;2022-08-03T06:51:14;100659.47;;;18.57;100.00
46928;BME280;32668;51.306;-0.576;2022-08-03T06:53:39;100659.44;;;18.62;100.00
46928;BME280;32668;51.306;-0.576;2022-08-03T06:56:05;100656.78;;;18.65;100.00
46928;BME280;32668;51.306;-0.576;2022-08-03T06:58:31;100667.28;;;18.70;100.00
46928;BME280;32668;51.306;-0.576;2022-08-03T07:00:56;100661.09;;;18.76;100.00
46928;BME280;32668;51.306;-0.576;2022-08-03T07:03:22;100668.06;;;18.86;100.00
46928;BME280;32668;51.306;-0.576;2022-08-03T07:05:47;100668.84;;;18.99;100.00
46928;BME280;32668;51.306;-0.576;2022-08-03T07:08:15;100669.69;;;19.04;100.00
46928;BME280;32668;51.306;-0.576;2022-08-03T07:10:40;100665.31;;;19.01;100.00
46928;BME280;32668;51.306;-0.576;2022-08-03T07:13:06;100669.69;;;19.06;100.00
46928;BME280;32668;51.306;-0.576;2022-08-03T07:15:33;100674.88;;;19.13;100.00
46928;BME280;32668;51.306;-0.576;2022-08-03T07:17:59;100672.25;;;19.15;100.00
46928;BME280;32668;51.306;-0.576;2022-08-03T07:20:24;100678.44;;;19.08;100.00
46928;BME280;32668;51.306;-0.576;2022-08-03T07:22:50;100668.84;;;18.99;100.00
46928;BME280;32668;51.306;-0.576;2022-08-03T07:25:15;100671.53;;;18.96;100.00
46928;BME280;32668;51.306;-0.576;2022-08-03T07:27:45;100665.31;;;19.03;100.00
46928;BME280;32668;51.306;-0.576;2022-08-03T07:30:11;100675.84;;;19.05;100.00
46928;BME280;32668;51.306;-0.576;2022-08-03T07:32:36;100676.72;;;19.08;100.00
46928;BME280;32668;51.306;-0.576;2022-08-03T07:35:04;100684.56;;;19.11;100.00
46928;BME280;32668;51.306;-0.576;2022-08-03T07:37:29;100685.44;;;19.12;100.00
46928;BME280;32668;51.306;-0.576;2022-08-03T07:39:56;100684.50;;;19.21;100.00
46928;BME280;32668;51.306;-0.576;2022-08-03T07:42:21;100687.06;;;19.25;100.00
46928;BME280;32668;51.306;-0.576;2022-08-03T07:44:50;100682.66;;;19.29;100.00
46928;BME280;32668;51.306;-0.576;2022-08-03T07:47:22;100695.75;;;19.40;100.00
46928;BME280;32668;51.306;-0.576;2022-08-03T07:49:49;100700.16;;;19.41;100.00
46928;BME280;32668;51.306;-0.576;2022-08-03T07:52:14;100693.97;;;19.40;100.00
46928;BME280;32668;51.306;-0.576;2022-08-03T07:54:58;100688.69;;;19.42;100.00
46928;BME280;32668;51.306;-0.576;2022-08-03T07:57:24;100685.97;;;19.50;100.00
46928;BME280;32668;51.306;-0.576;2022-08-03T07:59:49;100690.34;;;19.54;100.00
46928;BME280;32668;51.306;-0.576;2022-08-03T08:02:14;100687.69;;;19.54;100.00
46928;BME280;32668;51.306;-0.576;2022-08-03T08:04:40;100692.91;;;19.58;100.00
46928;BME280;32668;51.306;-0.576;2022-08-03T08:07:06;100684.09;;;19.61;100.00
46928;BME280;32668;51.306;-0.576;2022-08-03T08:09:31;100686.69;;;19.66;100.00
46928;BME280;32668;51.306;-0.576;2022-08-03T08:11:57;100681.44;;;19.64;100.00
46928;BME280;32668;51.306;-0.576;2022-08-03T08:14:22;100676.22;;;19.56;100.00
46928;BME280;32668;51.306;-0.576;2022-08-03T08:16:48;100677.00;;;19.65;100.00
46928;BME280;32668;51.306;-0.576;2022-08-03T08:19:14;100679.53;;;19.75;100.00
46928;BME280;32668;51.306;-0.576;2022-08-03T08:21:41;100679.41;;;19.89;100.00
46928;BME280;32668;51.306;-0.576;2022-08-03T08:24:07;100685.56;;;19.90;100.00
46928;BME280;32668;51.306;-0.576;2022-08-03T08:26:32;100687.31;;;19.86;100.00
46928;BME280;32668;51.306;-0.576;2022-08-03T08:28:57;100686.44;;;19.87;100.00
46928;BME280;32668;51.306;-0.576;2022-08-03T08:31:23;100689.09;;;19.86;100.00
46928;BME280;32668;51.306;-0.576;2022-08-03T08:33:48;100685.50;;;19.95;100.00
46928;BME280;32668;51.306;-0.576;2022-08-03T08:36:14;100681.78;;;20.11;100.00
46928;BME280;32668;51.306;-0.576;2022-08-03T08:38:39;100672.03;;;20.16;100.00
46928;BME280;32668;51.306;-0.576;2022-08-03T08:41:07;100671.13;;;20.19;100.00
46928;BME280;32668;51.306;-0.576;2022-08-03T08:43:33;100671.63;;;20.44;100.00
46928;BME280;32668;51.306;-0.576;2022-08-03T08:45:59;100677.50;;;20.65;100.00
46928;BME280;32668;51.306;-0.576;2022-08-03T08:48:25;100681.88;;;20.68;100.00
46928;BME280;32668;51.306;-0.576;2022-08-03T08:50:53;100675.66;;;20.70;100.00
46928;BME280;32668;51.306;-0.576;2022-08-03T08:53:20;100682.84;;;20.60;100.00
46928;BME280;32668;51.306;-0.576;2022-08-03T08:55:46;100683.78;;;20.56;100.00
46928;BME280;32668;51.306;-0.576;2022-08-03T08:58:15;100682.94;;;20.56;100.00
46928;BME280;32668;51.306;-0.576;2022-08-03T09:00:43;100674.75;;;20.71;100.00
46928;BME280;32668;51.306;-0.576;2022-08-03T09:03:10;100678.28;;;20.70;100.00
46928;BME280;32668;51.306;-0.576;2022-08-03T09:05:36;100685.50;;;20.62;100.00
46928;BME280;32668;51.306;-0.576;2022-08-03T09:08:04;100681.06;;;20.62;100.00
46928;BME280;32668;51.306;-0.576;2022-08-03T09:10:30;100671.25;;;20.69;100.00
46928;BME280;32668;51.306;-0.576;2022-08-03T09:12:55;100694.03;;;20.83;100.00
46928;BME280;32668;51.306;-0.576;2022-08-03T09:15:31;100684.34;;;20.80;100.00
46928;BME280;32668;51.306;-0.576;2022-08-03T09:18:02;100679.94;;;20.79;100.00
46928;BME280;32668;51.306;-0.576;2022-08-03T09:20:30;100672.06;;;20.77;100.00
46928;BME280;32668;51.306;-0.576;2022-08-03T09:25:33;100669.94;;;20.98;100.00
46928;BME280;32668;51.306;-0.576;2022-08-03T09:28:11;100670.38;;;21.25;100.00
46928;BME280;32668;51.306;-0.576;2022-08-03T09:30:42;100663.91;;;21.42;100.00
46928;BME280;32668;51.306;-0.576;2022-08-03T09:33:09;100662.19;;;21.39;100.00
46928;BME280;32668;51.306;-0.576;2022-08-03T09:35:42;100671.91;;;21.38;100.00
46928;BME280;32668;51.306;-0.576;2022-08-03T09:38:19;100677.44;;;21.24;100.00
46928;BME280;32668;51.306;-0.576;2022-08-03T09:40:50;100670.63;;;21.60;100.00
46928;BME280;32668;51.306;-0.576;2022-08-03T09:43:16;100676.38;;;21.83;100.00
46928;BME280;32668;51.306;-0.576;2022-08-03T09:45:42;100671.66;;;21.98;100.00
46928;BME280;32668;51.306;-0.576;2022-08-03T09:50:53;100667.47;;;22.68;100.00
46928;BME280;32668;51.306;-0.576;2022-08-03T09:53:19;100660.69;;;22.56;100.00
46928;BME280;32668;51.306;-0.576;2022-08-03T09:55:58;100668.06;;;22.41;100.00
46928;BME280;32668;51.306;-0.576;2022-08-03T09:58:25;100670.72;;;22.41;100.00
46928;BME280;32668;51.306;-0.576;2022-08-03T10:01:02;100673.09;;;22.14;100.00
46928;BME280;32668;51.306;-0.576;2022-08-03T10:03:36;100674.97;;;22.09;100.00
46928;BME280;32668;51.306;-0.576;2022-08-03T10:06:17;100669.84;;;22.41;100.00
46928;BME280;32668;51.306;-0.576;2022-08-03T10:09:11;100667.81;;;22.13;100.00
46928;BME280;32668;51.306;-0.576;2022-08-03T10:11:39;100666.13;;;22.09;100.00
46928;BME280;32668;51.306;-0.576;2022-08-03T10:14:06;100663.75;;;22.37;100.00
46928;BME280;32668;51.306;-0.576;2022-08-03T10:16:37;100656.66;;;22.38;100.00
46928;BME280;32668;51.306;-0.576;2022-08-03T10:19:05;100651.13;;;22.49;100.00
46928;BME280;32668;51.306;-0.576;2022-08-03T10:21:34;100657.69;;;22.70;100.00
46928;BME280;32668;51.306;-0.576;2022-08-03T10:24:04;100654.00;;;22.77;100.00
46928;BME280;32668;51.306;-0.576;2022-08-03T10:26:37;100651.34;;;22.77;100.00
46928;BME280;32668;51.306;-0.576;2022-08-03T10:29:05;100664.75;;;23.07;100.00
46928;BME280;32668;51.306;-0.576;2022-08-03T10:31:43;100661.34;;;23.37;100.00
46928;BME280;32668;51.306;-0.576;2022-08-03T10:34:22;100661.03;;;23.47;99.54
46928;BME280;32668;51.306;-0.576;2022-08-03T10:36:48;100660.59;;;23.31;97.73
46928;BME280;32668;51.306;-0.576;2022-08-03T10:39:18;100659.31;;;23.12;99.94
46928;BME280;32668;51.306;-0.576;2022-08-03T10:41:46;100653.84;;;23.18;99.87
46928;BME280;32668;51.306;-0.576;2022-08-03T10:44:17;100657.28;;;23.23;100.00
46928;BME280;32668;51.306;-0.576;2022-08-03T10:46:43;100658.31;;;23.16;100.00
46928;BME280;32668;51.306;-0.576;2022-08-03T10:49:14;100656.88;;;23.39;99.16
46928;BME280;32668;51.306;-0.576;2022-08-03T10:51:41;100659.38;;;23.45;99.10
46928;BME280;32668;51.306;-0.576;2022-08-03T10:54:41;100663.09;;;23.38;97.89
46928;BME280;32668;51.306;-0.576;2022-08-03T10:57:52;100659.13;;;23.53;97.71
46928;BME280;32668;51.306;-0.576;2022-08-03T11:00:25;100664.34;;;23.87;95.18
46928;BME280;32668;51.306;-0.576;2022-08-03T11:03:05;100666.19;;;23.85;95.57
46928;BME280;32668;51.306;-0.576;2022-08-03T11:05:33;100658.91;;;23.29;97.58
46928;BME280;32668;51.306;-0.576;2022-08-03T11:10:44;100654.81;;;23.48;98.28
46928;BME280;32668;51.306;-0.576;2022-08-03T11:13:15;100655.44;;;23.90;94.45
46928;BME280;32668;51.306;-0.576;2022-08-03T11:15:43;100665.41;;;23.50;96.23
46928;BME280;32668;51.306;-0.576;2022-08-03T11:18:10;100655.78;;;23.77;95.72
46928;BME280;32668;51.306;-0.576;2022-08-03T11:23:15;100652.91;;;24.17;91.45
46928;BME280;32668;51.306;-0.576;2022-08-03T11:26:18;100654.88;;;24.10;90.77
46928;BME280;32668;51.306;-0.576;2022-08-03T11:28:47;100658.22;;;24.17;91.12
46928;BME280;32668;51.306;-0.576;2022-08-03T11:34:07;100651.44;;;24.06;92.33
46928;BME280;32668;51.306;-0.576;2022-08-03T11:39:39;100667.03;;;24.19;92.05
46928;BME280;32668;51.306;-0.576;2022-08-03T11:45:00;100661.63;;;23.90;92.55
46928;BME280;32668;51.306;-0.576;2022-08-03T11:47:27;100650.75;;;24.00;92.28
46928;BME280;32668;51.306;-0.576;2022-08-03T11:49:55;100655.81;;;24.09;92.73
46928;BME280;32668;51.306;-0.576;2022-08-03T11:52:21;100658.94;;;23.92;91.58
46928;BME280;32668;51.306;-0.576;2022-08-03T11:54:51;100650.81;;;23.97;91.46
46928;BME280;32668;51.306;-0.576;2022-08-03T11:57:30;100645.16;;;24.09;91.32
46928;BME280;32668;51.306;-0.576;2022-08-03T11:59:56;100645.44;;;24.28;89.54
46928;BME280;32668;51.306;-0.576;2022-08-03T12:02:22;100652.91;;;24.45;89.60
46928;BME280;32668;51.306;-0.576;2022-08-03T12:04:57;100638.69;;;24.46;89.54
46928;BME280;32668;51.306;-0.576;2022-08-03T12:07:26;100651.94;;;24.48;88.16
46928;BME280;32668;51.306;-0.576;2022-08-03T12:10:09;100651.75;;;24.26;89.15
46928;BME280;32668;51.306;-0.576;2022-08-03T12:12:35;100659.53;;;24.32;90.45
46928;BME280;32668;51.306;-0.576;2022-08-03T12:15:02;100662.09;;;24.35;90.50
46928;BME280;32668;51.306;-0.576;2022-08-03T12:17:39;100658.66;;;24.01;90.78
46928;BME280;32668;51.306;-0.576;2022-08-03T12:20:07;100675.00;;;23.87;91.59
46928;BME280;32668;51.306;-0.576;2022-08-03T12:22:35;100666.56;;;23.73;93.43
46928;BME280;32668;51.306;-0.576;2022-08-03T12:25:06;100670.03;;;23.75;93.79
46928;BME280;32668;51.306;-0.576;2022-08-03T12:27:33;100669.44;;;23.65;94.57
46928;BME280;32668;51.306;-0.576;2022-08-03T12:29:59;100662.41;;;23.62;95.00
46928;BME280;32668;51.306;-0.576;2022-08-03T12:32:29;100663.53;;;23.55;94.67
46928;BME280;32668;51.306;-0.576;2022-08-03T12:34:56;100664.66;;;23.45;95.84
46928;BME280;32668;51.306;-0.576;2022-08-03T12:37:26;100665.59;;;23.44;95.72
46928;BME280;32668;51.306;-0.576;2022-08-03T12:39:54;100658.84;;;23.63;95.05
46928;BME280;32668;51.306;-0.576;2022-08-03T12:42:20;100667.91;;;23.88;94.19
46928;BME280;32668;51.306;-0.576;2022-08-03T12:44:45;100652.09;;;24.13;92.83
46928;BME280;32668;51.306;-0.576;2022-08-03T12:47:13;100656.56;;;24.41;90.35
46928;BME280;32668;51.306;-0.576;2022-08-03T12:52:11;100655.41;;;24.21;90.80
46928;BME280;32668;51.306;-0.576;2022-08-03T12:54:37;100654.75;;;24.15;91.83
46928;BME280;32668;51.306;-0.576;2022-08-03T12:57:10;100652.16;;;24.12;91.55
46928;BME280;32668;51.306;-0.576;2022-08-03T12:59:38;100637.81;;;24.46;90.96
46928;BME280;32668;51.306;-0.576;2022-08-03T13:02:17;100647.44;;;24.78;88.20
46928;BME280;32668;51.306;-0.576;2022-08-03T13:04:43;100647.16;;;24.86;85.83
46928;BME280;32668;51.306;-0.576;2022-08-03T13:07:10;100650.63;;;24.61;87.12
46928;BME280;32668;51.306;-0.576;2022-08-03T13:09:55;100642.47;;;24.39;88.47
46928;BME280;32668;51.306;-0.576;2022-08-03T13:12:25;100636.09;;;24.45;88.47
46928;BME280;32668;51.306;-0.576;2022-08-03T13:14:56;100646.84;;;24.40;88.37